Portada
METAR-TAF:

METAR-TAF

Aeropuertos :

Aeropuerto de Lampedusa

Lampedusa, Italia

latitud: 35-30N, longitud: 012-36E, altitud: 16 m

Observación

El informe se hizo hace 35 minutos, a las 13:20 UTC
Viento 20 kt del norte-noroeste
Temperatura 25°C
Humedad 69%
Presión 1016 hPa
Visibilidad 10 km o más

METAR: LICD 131320Z AUTO 34020KT 9999 NCD 25/19 Q1016

Hora: 15:55 (13:55 UTC)

Pronóstico

El informe se hizo hace 2 horas y 55 minutos, a las 11:00 UTC
Pronóstico válido del 13 a las 12 UTC al 14 a las 12 UTC
Viento 18 kt del norte con ráfagas de 28 kt
Visibilidad 10 km o más
Nubes dispersas a una altura de 3000 ft
Evolucionando progresivamente
del 14 a las 01 UTC al 14 a las 03 UTC
Viento 16 kt del norte

TAF: LICD 131100Z 1312/1412 35018G28KT 9999 SCT030 BECMG 1401/1403 35016KT

Observaciones y pronósticos meteorológicos de más de 4000 aeropuertos (mensajes METAR y TAF).

Los puntos amarillos y rojos representan las estaciones disponibles.

Ponga el ratón en el punto deseado para ver el nombre de la estación.

Haga clic para ver las observaciones y los pronósticos meteorológicos.

Para cambiar el mapa : haga clic en los botones verdes con una cruz de color negro para hacer un zoom, en el botón verde con un guión para alejar o en las flechas verdes para mapas adyacentes.


METAR-TAF: